Time;durP1;ratioP1;P1;durP2;ratioP2;P2;SDS_P1;SDS_P2;PMS_P1;PMS_P2;Temp;Humidity;BMP_temperature;BMP_pressure;BME280_temperature;BME280_humidity;BME280_pressure;Samples;Min_cycle;Max_cycle;Signal;HPM_P1;HPM_P2
2023/02/05 00:01:24;;;;;;;16.63;7.70;;;8.90;99.90;;;;;;4932566;29;20469;-71
2023/02/05 00:03:52;;;;;;;14.33;7.20;;;8.90;99.90;;;;;;4917215;29;20474;-71
2023/02/05 00:06:18;;;;;;;12.63;6.53;;;8.90;99.90;;;;;;4901261;29;20858;-71
2023/02/05 00:08:44;;;;;;;15.63;7.03;;;8.90;99.90;;;;;;4917137;29;20484;-71
2023/02/05 00:11:10;;;;;;;16.77;8.13;;;8.90;99.90;;;;;;4916479;29;20931;-71
2023/02/05 00:13:37;;;;;;;13.23;7.33;;;8.90;99.90;;;;;;4917018;29;20411;-71
2023/02/05 00:16:12;;;;;;;14.37;8.13;;;8.90;99.90;;;;;;4916568;29;20496;-71
2023/02/05 00:18:41;;;;;;;16.77;7.77;;;8.90;99.90;;;;;;4916990;29;20448;-71
2023/02/05 00:21:08;;;;;;;14.30;6.77;;;8.80;99.90;;;;;;4917824;29;20397;-71
2023/02/05 00:23:35;;;;;;;15.23;7.27;;;8.80;99.90;;;;;;4932733;29;20894;-71
2023/02/05 00:26:03;;;;;;;16.80;7.90;;;8.80;99.90;;;;;;4917796;29;20447;-71
2023/02/05 00:28:33;;;;;;;13.43;7.30;;;8.80;99.90;;;;;;4900949;29;20837;-71
2023/02/05 00:31:08;;;;;;;16.67;9.00;;;8.80;99.90;;;;;;4932081;29;20444;-71
2023/02/05 00:33:38;;;;;;;17.63;7.07;;;8.80;99.90;;;;;;4901309;29;20914;-71
2023/02/05 00:36:09;;;;;;;13.60;7.23;;;8.80;99.90;;;;;;4900049;29;20974;-71
2023/02/05 00:38:41;;;;;;;14.60;7.90;;;8.80;99.90;;;;;;4915506;29;20416;-71
2023/02/05 00:41:08;;;;;;;16.10;8.13;;;8.80;99.90;;;;;;4932160;29;20412;-71
2023/02/05 00:43:37;;;;;;;13.23;8.03;;;8.80;99.90;;;;;;4917532;29;20463;-71
2023/02/05 00:46:03;;;;;;;15.00;8.20;;;8.80;99.90;;;;;;4932074;29;20430;-71
2023/02/05 00:48:30;;;;;;;13.80;7.37;;;8.80;99.90;;;;;;4931644;29;20505;-71
2023/02/05 00:50:57;;;;;;;16.47;8.00;;;8.80;99.90;;;;;;4931711;29;20428;-71
2023/02/05 00:53:23;;;;;;;14.73;8.10;;;8.80;99.90;;;;;;4917389;29;20405;-71
2023/02/05 00:55:50;;;;;;;22.33;7.60;;;8.80;99.90;;;;;;4931761;29;20457;-71
2023/02/05 00:58:18;;;;;;;14.57;7.67;;;8.80;99.90;;;;;;4917359;29;20770;-71
2023/02/05 01:00:45;;;;;;;17.67;8.50;;;8.80;99.90;;;;;;4884948;29;20448;-71
2023/02/05 01:03:12;;;;;;;16.50;7.27;;;8.80;99.90;;;;;;4931855;29;20507;-71
2023/02/05 01:05:38;;;;;;;14.00;8.57;;;8.80;99.90;;;;;;4917323;29;20851;-71
2023/02/05 01:08:06;;;;;;;13.37;8.27;;;8.80;99.90;;;;;;4916246;29;20421;-71
2023/02/05 01:10:34;;;;;;;15.13;7.67;;;8.80;99.90;;;;;;4931832;29;20414;-71
2023/02/05 01:13:00;;;;;;;14.67;8.50;;;8.80;99.90;;;;;;4900294;29;20503;-71
2023/02/05 01:15:26;;;;;;;19.70;8.13;;;8.70;99.90;;;;;;4917119;29;20544;-71
2023/02/05 01:17:52;;;;;;;15.37;9.13;;;8.80;99.90;;;;;;4916039;29;20475;-71
2023/02/05 01:20:19;;;;;;;14.03;7.77;;;8.80;99.90;;;;;;4931311;29;20436;-70
2023/02/05 01:22:45;;;;;;;15.57;7.80;;;8.80;99.90;;;;;;4931552;29;20453;-70
2023/02/05 01:25:11;;;;;;;13.50;8.17;;;8.80;99.90;;;;;;4915643;29;20503;-71
2023/02/05 01:27:39;;;;;;;15.97;8.17;;;8.70;99.90;;;;;;4919097;29;20423;-71
2023/02/05 01:30:10;;;;;;;16.67;8.53;;;8.70;99.90;;;;;;4937673;29;20532;-71
2023/02/05 01:32:40;;;;;;;18.60;8.77;;;8.70;99.90;;;;;;4922136;29;20435;-71
2023/02/05 01:35:07;;;;;;;16.13;8.47;;;8.70;99.90;;;;;;4923260;29;20887;-71
2023/02/05 01:37:33;;;;;;;13.83;8.40;;;8.70;99.90;;;;;;4937940;29;20762;-71
2023/02/05 01:40:03;;;;;;;15.27;8.97;;;8.70;99.90;;;;;;4937935;29;20411;-71
2023/02/05 01:42:30;;;;;;;13.90;7.80;;;8.70;99.90;;;;;;4922319;29;20448;-71
2023/02/05 01:45:35;;;;;;;19.27;9.10;;;8.70;99.90;;;;;;4906341;29;20420;-71
2023/02/05 01:48:07;;;;;;;19.03;8.80;;;8.70;99.90;;;;;;4937345;29;20460;-71
2023/02/05 01:50:46;;;;;;;12.00;8.03;;;8.70;99.90;;;;;;4905708;29;20942;-71
2023/02/05 01:53:17;;;;;;;12.90;8.17;;;8.70;99.90;;;;;;4937270;29;20444;-71
2023/02/05 01:56:08;;;;;;;17.00;8.10;;;8.70;99.90;;;;;;4921457;29;20464;-70
2023/02/05 01:59:07;;;;;;;13.00;8.13;;;8.70;99.90;;;;;;4921912;29;20515;-70
2023/02/05 02:01:34;;;;;;;14.73;7.70;;;8.70;99.90;;;;;;4921660;29;20472;-70
2023/02/05 02:04:04;;;;;;;17.47;8.07;;;8.70;99.90;;;;;;4890717;29;21061;-70
2023/02/05 02:06:34;;;;;;;14.03;7.80;;;8.70;99.90;;;;;;4921819;29;20440;-71
2023/02/05 02:09:03;;;;;;;12.40;7.87;;;8.70;99.90;;;;;;4890653;29;20428;-71
2023/02/05 02:11:34;;;;;;;13.53;7.77;;;8.70;99.90;;;;;;4921801;29;20428;-71
2023/02/05 02:14:08;;;;;;;14.90;9.13;;;8.70;99.90;;;;;;4921906;29;20458;-71
2023/02/05 02:16:36;;;;;;;11.97;7.43;;;8.70;99.90;;;;;;4921650;29;20447;-71
2023/02/05 02:19:11;;;;;;;18.83;8.17;;;8.70;99.90;;;;;;4921763;29;20400;-71
2023/02/05 02:21:48;;;;;;;13.60;8.43;;;8.70;99.90;;;;;;4937253;29;20448;-71
2023/02/05 02:24:47;;;;;;;12.70;7.83;;;8.60;99.90;;;;;;4937407;29;20440;-71
2023/02/05 02:27:39;;;;;;;17.20;8.80;;;8.60;99.90;;;;;;4901347;29;20444;-71
2023/02/05 02:30:26;;;;;;;16.70;8.47;;;8.60;99.90;;;;;;4921249;29;21179;-71
2023/02/05 02:32:58;;;;;;;15.77;8.40;;;8.60;99.90;;;;;;4905638;29;20399;-71
2023/02/05 02:35:45;;;;;;;12.30;7.90;;;8.60;99.90;;;;;;4922630;29;20491;-71
2023/02/05 02:38:47;;;;;;;12.63;8.00;;;8.60;99.90;;;;;;4921461;29;20439;-71
2023/02/05 02:41:26;;;;;;;14.90;8.67;;;8.60;99.90;;;;;;4896286;29;20466;-71
2023/02/05 02:44:01;;;;;;;13.80;8.63;;;8.60;99.90;;;;;;4918560;29;20758;-71
2023/02/05 02:46:35;;;;;;;17.97;8.30;;;8.60;99.90;;;;;;4918495;29;20443;-71
2023/02/05 02:49:07;;;;;;;15.40;7.90;;;8.60;99.90;;;;;;4903154;29;20456;-71
2023/02/05 02:51:37;;;;;;;17.50;8.73;;;8.60;99.90;;;;;;4933386;29;20401;-71
2023/02/05 02:54:11;;;;;;;11.97;7.73;;;8.60;99.90;;;;;;4918134;29;20463;-71
2023/02/05 02:56:40;;;;;;;15.90;7.77;;;8.60;99.90;;;;;;4918302;29;20457;-71
2023/02/05 02:59:13;;;;;;;16.03;8.33;;;8.60;99.90;;;;;;4918112;29;20403;-71
2023/02/05 03:01:42;;;;;;;15.60;8.60;;;8.60;99.90;;;;;;4902109;29;20525;-71
2023/02/05 03:04:14;;;;;;;13.47;7.97;;;8.60;99.90;;;;;;4918192;29;20444;-71
2023/02/05 03:06:44;;;;;;;14.40;8.50;;;8.60;99.90;;;;;;4902484;29;20804;-71
2023/02/05 03:09:25;;;;;;;14.40;9.07;;;8.60;99.90;;;;;;4915027;29;20405;-71
2023/02/05 03:11:51;;;;;;;13.10;9.03;;;8.60;99.90;;;;;;4900257;29;20484;-71
2023/02/05 03:14:21;;;;;;;15.07;9.00;;;8.60;99.90;;;;;;4899296;29;20440;-71
2023/02/05 03:16:50;;;;;;;15.83;8.20;;;8.60;99.90;;;;;;4914709;29;20512;-71
2023/02/05 03:19:16;;;;;;;16.23;7.73;;;8.50;99.90;;;;;;4899222;29;20757;-71
2023/02/05 03:21:50;;;;;;;18.97;8.07;;;8.60;99.90;;;;;;4899515;29;20895;-71
2023/02/05 03:24:16;;;;;;;12.70;8.03;;;8.60;99.90;;;;;;4899878;29;20405;-71
2023/02/05 03:26:42;;;;;;;16.40;7.87;;;8.60;99.90;;;;;;4898750;29;20531;-71
2023/02/05 03:29:34;;;;;;;14.27;7.73;;;8.50;99.90;;;;;;4912602;29;20892;-71
2023/02/05 03:32:21;;;;;;;15.10;8.00;;;8.50;99.90;;;;;;4914292;29;20474;-71
2023/02/05 03:35:09;;;;;;;12.20;8.33;;;8.50;99.90;;;;;;4883138;29;20453;-71
2023/02/05 03:37:58;;;;;;;15.40;7.80;;;8.50;99.90;;;;;;4913899;29;20427;-71
2023/02/05 03:40:56;;;;;;;14.43;8.77;;;8.50;99.90;;;;;;4898641;29;20520;-71
2023/02/05 03:43:57;;;;;;;14.47;8.70;;;8.50;99.90;;;;;;4897545;29;20859;-71
2023/02/05 03:46:52;;;;;;;20.03;9.00;;;8.50;99.90;;;;;;4914206;29;20502;-71
2023/02/05 03:49:34;;;;;;;18.70;8.27;;;8.50;99.90;;;;;;4897416;29;20815;-71
2023/02/05 03:52:09;;;;;;;14.20;8.20;;;8.50;99.90;;;;;;4913328;29;20440;-71
2023/02/05 03:55:08;;;;;;;12.80;8.60;;;8.50;99.90;;;;;;4913793;29;20871;-71
2023/02/05 03:57:53;;;;;;;14.67;7.40;;;8.50;99.90;;;;;;4914089;29;20402;-71
2023/02/05 04:00:26;;;;;;;16.63;8.77;;;8.50;99.90;;;;;;4898505;29;20436;-71
2023/02/05 04:02:54;;;;;;;16.67;9.07;;;8.50;99.90;;;;;;4913900;29;20453;-71
2023/02/05 04:05:24;;;;;;;14.53;8.73;;;8.50;99.90;;;;;;4914001;29;20489;-71
2023/02/05 04:07:56;;;;;;;14.50;8.47;;;8.50;99.90;;;;;;4913865;29;20405;-71
2023/02/05 04:10:26;;;;;;;14.83;8.73;;;8.50;99.90;;;;;;4913827;29;20405;-71
2023/02/05 04:12:52;;;;;;;16.80;8.93;;;8.50;99.90;;;;;;4913868;29;20455;-71
2023/02/05 04:15:26;;;;;;;17.50;9.87;;;8.50;99.90;;;;;;4898209;29;20488;-71
2023/02/05 04:17:56;;;;;;;14.17;8.60;;;8.50;99.90;;;;;;4913784;29;20539;-71
2023/02/05 04:20:24;;;;;;;13.70;9.33;;;8.50;99.90;;;;;;4898118;29;20437;-71
2023/02/05 04:22:55;;;;;;;19.27;10.50;;;8.50;99.90;;;;;;4913328;29;20460;-71
2023/02/05 04:25:25;;;;;;;16.17;10.33;;;8.50;99.90;;;;;;4897155;29;20471;-71
2023/02/05 04:27:53;;;;;;;23.50;10.93;;;8.50;99.90;;;;;;4897582;29;20519;-71
2023/02/05 04:30:19;;;;;;;19.20;9.87;;;8.50;99.90;;;;;;4898050;29;20452;-72
2023/02/05 04:32:46;;;;;;;14.17;9.30;;;8.50;99.90;;;;;;4897732;29;20806;-72
2023/02/05 04:35:17;;;;;;;19.80;11.00;;;8.50;99.90;;;;;;4899160;29;20811;-72
2023/02/05 04:37:45;;;;;;;18.67;11.93;;;8.50;99.90;;;;;;4897798;29;20485;-72
2023/02/05 04:40:11;;;;;;;20.70;10.67;;;8.40;99.90;;;;;;4898912;29;20421;-72
2023/02/05 04:42:39;;;;;;;26.10;11.70;;;8.50;99.90;;;;;;4898685;29;20449;-72
2023/02/05 04:45:09;;;;;;;19.83;11.00;;;8.50;99.90;;;;;;4898563;29;20406;-72
2023/02/05 04:47:35;;;;;;;19.27;10.53;;;8.50;99.90;;;;;;4898681;29;20412;-72
2023/02/05 04:50:01;;;;;;;26.40;12.40;;;8.50;99.90;;;;;;4913399;29;20438;-72
2023/02/05 04:52:30;;;;;;;15.40;10.03;;;8.50;99.90;;;;;;4913140;29;20439;-72
2023/02/05 04:54:56;;;;;;;19.40;11.70;;;8.50;99.90;;;;;;4897242;29;20484;-72
2023/02/05 04:57:24;;;;;;;23.07;11.80;;;8.50;99.90;;;;;;4898723;29;20413;-72
2023/02/05 04:59:52;;;;;;;23.80;13.00;;;8.50;99.90;;;;;;4912799;29;20505;-72
2023/02/05 05:02:18;;;;;;;23.90;13.07;;;8.50;99.90;;;;;;4897561;29;20925;-72
2023/02/05 05:04:44;;;;;;;20.87;11.53;;;8.50;99.90;;;;;;4897386;29;20951;-72
2023/02/05 05:07:10;;;;;;;26.40;13.70;;;8.50;99.90;;;;;;4898303;29;20450;-72
2023/02/05 05:09:39;;;;;;;27.10;15.00;;;8.40;99.90;;;;;;4897234;29;20436;-72
2023/02/05 05:12:05;;;;;;;25.70;13.67;;;8.40;99.90;;;;;;4898414;29;20496;-72
2023/02/05 05:14:31;;;;;;;23.70;12.13;;;8.50;99.90;;;;;;4897300;29;20440;-72
2023/02/05 05:16:57;;;;;;;22.80;12.90;;;8.50;99.90;;;;;;4912627;29;20828;-71
2023/02/05 05:19:23;;;;;;;25.37;13.30;;;8.50;99.90;;;;;;4896937;29;20867;-71
2023/02/05 05:21:49;;;;;;;27.13;15.97;;;8.50;99.90;;;;;;4912779;29;20450;-72
2023/02/05 05:24:20;;;;;;;31.13;15.90;;;8.40;99.90;;;;;;4898274;29;20444;-72
2023/02/05 05:26:48;;;;;;;27.00;15.57;;;8.40;99.90;;;;;;4898246;29;20520;-72
2023/02/05 05:29:14;;;;;;;22.23;13.63;;;8.40;99.90;;;;;;4912609;29;20970;-72
2023/02/05 05:31:41;;;;;;;27.87;15.10;;;8.40;99.90;;;;;;4897857;29;20414;-71
2023/02/05 05:34:09;;;;;;;26.17;13.83;;;8.40;99.90;;;;;;4896641;29;20418;-71
2023/02/05 05:36:36;;;;;;;28.90;13.47;;;8.40;99.90;;;;;;4896811;29;20460;-71
2023/02/05 05:44:31;;;;;;;28.73;13.77;;;8.40;99.90;;;;;;4896844;29;20523;-71
2023/02/05 05:46:57;;;;;;;24.53;13.77;;;8.40;99.90;;;;;;4897988;29;20534;-71
2023/02/05 05:49:23;;;;;;;24.50;16.33;;;8.40;99.90;;;;;;4912716;29;20183;-72
2023/02/05 05:51:51;;;;;;;26.10;13.57;;;8.40;99.90;;;;;;4898035;29;20464;-71
2023/02/05 05:54:17;;;;;;;25.97;15.83;;;8.40;99.90;;;;;;4896609;29;20986;-71
2023/02/05 05:56:44;;;;;;;27.77;17.80;;;8.40;99.90;;;;;;4896814;29;20448;-71
2023/02/05 05:59:11;;;;;;;24.00;14.37;;;8.40;99.90;;;;;;4896878;29;20287;-71
2023/02/05 06:01:37;;;;;;;25.60;14.10;;;8.40;99.90;;;;;;4897020;29;20848;-71
2023/02/05 06:04:03;;;;;;;23.53;15.53;;;8.40;99.90;;;;;;4896914;29;20405;-71
2023/02/05 06:06:29;;;;;;;27.63;14.97;;;8.40;99.90;;;;;;4896632;29;20459;-72
2023/02/05 06:08:55;;;;;;;25.30;14.87;;;8.40;99.90;;;;;;4912358;29;20814;-72
2023/02/05 06:11:21;;;;;;;24.90;14.63;;;8.40;99.90;;;;;;4912116;29;20440;-71
2023/02/05 06:13:47;;;;;;;28.23;14.30;;;8.40;99.90;;;;;;4897923;29;20437;-71
2023/02/05 06:16:14;;;;;;;29.93;16.77;;;8.40;99.90;;;;;;4915800;29;20441;-71
2023/02/05 06:18:42;;;;;;;28.00;15.70;;;8.40;99.90;;;;;;4900300;29;20417;-71
2023/02/05 06:21:11;;;;;;;27.80;16.43;;;8.40;99.90;;;;;;4915815;29;20412;-71
2023/02/05 06:23:37;;;;;;;25.07;15.13;;;8.40;99.90;;;;;;4900054;29;20542;-71
2023/02/05 06:26:03;;;;;;;26.87;16.30;;;8.40;99.90;;;;;;4901104;29;20442;-71
2023/02/05 06:28:29;;;;;;;27.90;14.63;;;8.40;99.90;;;;;;4901028;29;20450;-71
2023/02/05 06:30:55;;;;;;;28.60;16.20;;;8.40;99.90;;;;;;4915239;29;20446;-71
2023/02/05 06:33:23;;;;;;;30.87;16.43;;;8.40;99.90;;;;;;4900912;29;20176;-71
2023/02/05 06:35:54;;;;;;;26.50;15.57;;;8.40;99.90;;;;;;4914583;29;20445;-75
2023/02/05 06:38:22;;;;;;;28.80;17.30;;;8.40;99.90;;;;;;4915113;29;20435;-74
2023/02/05 06:40:51;;;;;;;29.40;17.30;;;8.40;99.90;;;;;;4899937;29;20452;-74
2023/02/05 06:43:19;;;;;;;28.50;17.50;;;8.40;99.90;;;;;;4884061;29;21066;-76
2023/02/05 06:45:50;;;;;;;29.30;17.50;;;8.40;99.90;;;;;;4883899;29;20485;-74
2023/02/05 06:48:20;;;;;;;33.60;20.60;;;8.40;99.90;;;;;;4899770;29;20445;-74
2023/02/05 06:50:47;;;;;;;32.50;18.20;;;8.40;99.90;;;;;;4914760;29;20843;-74
2023/02/05 06:53:13;;;;;;;27.00;15.80;;;8.40;99.90;;;;;;4914692;29;20471;-76
2023/02/05 06:55:39;;;;;;;32.00;17.40;;;8.40;99.90;;;;;;4898963;29;20498;-75
2023/02/05 06:58:07;;;;;;;29.80;17.70;;;8.40;99.90;;;;;;4914586;29;20928;-75
2023/02/05 07:00:41;;;;;;;30.20;17.13;;;8.40;99.90;;;;;;4898549;29;20795;-74
2023/02/05 07:03:08;;;;;;;35.50;20.00;;;8.40;99.90;;;;;;4882592;29;20481;-75
2023/02/05 07:05:35;;;;;;;32.20;18.90;;;8.40;99.90;;;;;;4898012;29;20447;-74
2023/02/05 07:08:05;;;;;;;30.57;16.73;;;8.40;99.90;;;;;;4897892;29;20438;-74
2023/02/05 07:10:34;;;;;;;33.00;18.30;;;8.40;99.90;;;;;;4914147;29;20401;-75
2023/02/05 07:13:02;;;;;;;33.70;18.70;;;8.40;99.90;;;;;;4898573;29;20520;-74
2023/02/05 07:15:30;;;;;;;30.60;17.47;;;8.40;99.90;;;;;;4899320;29;20501;-75
2023/02/05 07:18:01;;;;;;;33.40;18.53;;;8.40;99.90;;;;;;4899837;29;20494;-74
2023/02/05 07:20:29;;;;;;;30.53;17.60;;;8.40;99.90;;;;;;4913882;29;20504;-74
2023/02/05 07:22:59;;;;;;;30.00;18.17;;;8.40;99.90;;;;;;4922598;29;20467;-74
2023/02/05 07:25:25;;;;;;;32.27;19.20;;;8.40;99.90;;;;;;4932187;29;20448;-74
2023/02/05 07:27:51;;;;;;;28.33;17.83;;;8.40;99.90;;;;;;4901166;29;20908;-75
2023/02/05 07:30:19;;;;;;;29.70;17.10;;;8.40;99.90;;;;;;4932312;29;20439;-77
2023/02/05 07:32:45;;;;;;;28.23;17.27;;;8.40;99.90;;;;;;4907796;29;20923;-74
2023/02/05 07:35:14;;;;;;;25.93;17.50;;;8.40;99.90;;;;;;4913983;29;20492;-74
2023/02/05 07:37:42;;;;;;;30.03;16.77;;;8.40;99.90;;;;;;4913947;29;20532;-75
2023/02/05 07:40:11;;;;;;;28.70;17.40;;;8.40;99.90;;;;;;4913646;29;20494;-75
2023/02/05 07:42:37;;;;;;;31.27;17.77;;;8.40;99.90;;;;;;4913665;29;20984;-75
2023/02/05 07:45:07;;;;;;;26.83;16.70;;;8.40;99.90;;;;;;4898321;29;20421;-75
2023/02/05 07:47:33;;;;;;;29.87;16.73;;;8.40;99.90;;;;;;4899313;29;20412;-74
2023/02/05 07:50:03;;;;;;;25.80;17.13;;;8.40;99.90;;;;;;4898041;29;20429;-75
2023/02/05 07:52:32;;;;;;;27.33;15.73;;;8.40;99.90;;;;;;4913812;29;20410;-75
2023/02/05 07:55:00;;;;;;;26.20;16.77;;;8.40;99.90;;;;;;4898597;29;20497;-75
2023/02/05 07:57:30;;;;;;;25.97;16.53;;;8.40;99.90;;;;;;4913562;29;20839;-74
2023/02/05 07:59:58;;;;;;;27.90;17.17;;;8.40;99.90;;;;;;4899069;29;20409;-74
2023/02/05 08:02:31;;;;;;;25.97;15.50;;;8.40;99.90;;;;;;4897948;29;20473;-74
2023/02/05 08:04:57;;;;;;;27.37;16.60;;;8.40;99.90;;;;;;4898896;29;20399;-75
2023/02/05 08:07:23;;;;;;;31.57;16.93;;;8.40;99.90;;;;;;4895929;29;20473;-74
2023/02/05 08:09:51;;;;;;;24.83;15.10;;;8.40;99.90;;;;;;4897145;29;20438;-75
2023/02/05 08:12:19;;;;;;;24.77;15.50;;;8.40;99.90;;;;;;4896094;29;20447;-76
2023/02/05 08:14:45;;;;;;;22.77;14.50;;;8.40;99.90;;;;;;4912552;29;20485;-78
2023/02/05 08:17:11;;;;;;;23.67;13.20;;;8.40;99.90;;;;;;4912443;29;20440;-75
2023/02/05 08:19:37;;;;;;;22.13;13.50;;;8.40;99.90;;;;;;4897920;29;20173;-75
2023/02/05 08:22:05;;;;;;;24.13;13.50;;;8.40;99.90;;;;;;4912254;29;20464;-74
2023/02/05 08:24:33;;;;;;;22.67;13.83;;;8.40;99.90;;;;;;4897816;29;20417;-75
2023/02/05 08:27:00;;;;;;;22.40;13.80;;;8.40;99.90;;;;;;4893163;29;20484;-74
2023/02/05 08:29:28;;;;;;;21.10;13.70;;;8.40;99.90;;;;;;4986802;23;20516;-74
2023/02/05 08:31:54;;;;;;;23.87;14.23;;;8.40;99.90;;;;;;4911880;29;20608;-75
2023/02/05 08:34:20;;;;;;;19.73;11.40;;;8.40;99.90;;;;;;4884917;29;20464;-74
2023/02/05 08:36:49;;;;;;;16.47;10.67;;;8.40;99.90;;;;;;4910078;29;20500;-75
2023/02/05 08:39:17;;;;;;;16.57;10.50;;;8.40;99.90;;;;;;4915158;29;20484;-74
2023/02/05 08:41:43;;;;;;;17.77;11.10;;;8.40;99.90;;;;;;4915683;29;20455;-74
2023/02/05 08:44:11;;;;;;;17.57;9.90;;;8.40;99.90;;;;;;4904637;29;20433;-74
2023/02/05 08:46:39;;;;;;;11.93;8.10;;;8.40;99.90;;;;;;4913717;29;20596;-75
2023/02/05 08:49:08;;;;;;;12.33;8.00;;;8.30;99.90;;;;;;4914494;29;20937;-74
2023/02/05 08:51:34;;;;;;;9.67;6.50;;;8.40;99.90;;;;;;4914883;29;20455;-74
2023/02/05 08:54:08;;;;;;;15.73;7.50;;;8.40;99.90;;;;;;4899127;29;20430;-74
2023/02/05 08:56:34;;;;;;;10.13;7.03;;;8.40;99.90;;;;;;4917577;29;20460;-74
2023/02/05 08:59:00;;;;;;;10.50;5.57;;;8.40;99.90;;;;;;4900307;29;20805;-74
2023/02/05 09:01:25;;;;;;;9.77;5.30;;;8.40;99.90;;;;;;4913537;29;20450;-74
2023/02/05 09:03:52;;;;;;;10.47;5.50;;;8.30;99.90;;;;;;4900468;29;20409;-74
2023/02/05 09:06:21;;;;;;;7.60;5.07;;;8.40;99.90;;;;;;4914819;29;20546;-74
2023/02/05 09:08:50;;;;;;;7.17;4.20;;;8.40;99.90;;;;;;4914327;29;20440;-75
2023/02/05 09:11:20;;;;;;;7.37;4.50;;;8.40;99.90;;;;;;4895942;29;20422;-74
2023/02/05 09:13:46;;;;;;;5.70;4.30;;;8.30;99.90;;;;;;4914558;29;20444;-74
2023/02/05 09:16:15;;;;;;;6.67;3.80;;;8.30;99.90;;;;;;4910398;29;20466;-75
2023/02/05 09:18:41;;;;;;;7.63;4.30;;;8.30;99.90;;;;;;4896939;29;20398;-74
2023/02/05 09:21:12;;;;;;;6.30;4.27;;;8.30;99.90;;;;;;4915307;29;20432;-74
2023/02/05 09:23:38;;;;;;;7.00;3.77;;;8.30;99.90;;;;;;4913967;29;20451;-74
2023/02/05 09:26:04;;;;;;;6.63;3.13;;;8.30;99.90;;;;;;4895781;29;20478;-74
2023/02/05 09:28:35;;;;;;;4.50;3.20;;;8.30;99.90;;;;;;4914959;29;20445;-74
2023/02/05 09:31:12;;;;;;;5.20;3.17;;;8.30;99.90;;;;;;4914398;29;20461;-74
2023/02/05 09:33:40;;;;;;;9.20;3.30;;;8.30;99.90;;;;;;4903740;29;20467;-74
2023/02/05 09:36:12;;;;;;;12.93;3.10;;;8.30;99.90;;;;;;4909947;29;20470;-74
2023/02/05 09:38:40;;;;;;;7.60;2.70;;;8.30;99.90;;;;;;4914311;29;20445;-74
2023/02/05 09:41:16;;;;;;;5.60;3.13;;;8.30;99.90;;;;;;4917808;29;20469;-74
2023/02/05 09:43:54;;;;;;;5.30;2.90;;;8.30;99.90;;;;;;4913526;29;20446;-74
2023/02/05 09:46:52;;;;;;;12.70;2.90;;;8.30;99.90;;;;;;4885776;29;20474;-74
2023/02/05 09:49:26;;;;;;;4.53;2.60;;;8.30;99.90;;;;;;4909523;29;20443;-74
2023/02/05 09:52:02;;;;;;;5.10;2.47;;;8.30;99.90;;;;;;4917868;29;20883;-74
2023/02/05 09:54:37;;;;;;;5.33;2.50;;;8.30;99.90;;;;;;4916599;29;20446;-74
2023/02/05 09:57:14;;;;;;;6.73;2.60;;;8.30;99.90;;;;;;4915736;29;21315;-74
2023/02/05 09:59:48;;;;;;;4.40;2.67;;;8.30;99.90;;;;;;4901983;29;20463;-74
2023/02/05 10:02:31;;;;;;;6.87;2.83;;;8.30;99.90;;;;;;4912120;29;20464;-74
2023/02/05 10:05:00;;;;;;;8.13;2.37;;;8.30;99.90;;;;;;4904700;29;20524;-75
2023/02/05 10:07:46;;;;;;;6.83;2.40;;;8.30;99.90;;;;;;4876762;29;20454;-74
2023/02/05 10:10:24;;;;;;;8.83;3.50;;;8.30;99.90;;;;;;4917140;29;20442;-75
2023/02/05 10:13:20;;;;;;;6.23;1.93;;;8.30;99.90;;;;;;4891093;29;20443;-76
2023/02/05 10:16:03;;;;;;;6.90;1.77;;;8.30;99.90;;;;;;4901190;29;20554;-74
2023/02/05 10:18:47;;;;;;;8.20;2.50;;;8.30;99.90;;;;;;4902155;29;20438;-74
2023/02/05 10:21:22;;;;;;;6.97;1.77;;;8.30;99.90;;;;;;4918982;29;20443;-74
2023/02/05 10:23:56;;;;;;;5.80;2.27;;;8.30;99.90;;;;;;4917223;29;20463;-74
2023/02/05 10:26:32;;;;;;;7.67;2.07;;;8.30;99.90;;;;;;4895655;29;20468;-74
2023/02/05 10:29:10;;;;;;;4.40;1.73;;;8.30;99.90;;;;;;4900295;29;20467;-74
2023/02/05 10:32:09;;;;;;;4.93;1.50;;;8.30;99.90;;;;;;4902178;29;20442;-74
2023/02/05 10:34:52;;;;;;;6.30;2.30;;;8.30;99.90;;;;;;4870037;29;20480;-74
2023/02/05 10:37:56;;;;;;;5.60;1.93;;;8.30;99.90;;;;;;4896248;29;20975;-73
2023/02/05 10:40:31;;;;;;;5.80;2.30;;;8.30;99.90;;;;;;4899400;29;20550;-73
2023/02/05 10:43:31;;;;;;;5.20;1.80;;;8.30;99.90;;;;;;4900243;29;20457;-75
2023/02/05 10:45:58;;;;;;;5.63;1.90;;;8.30;99.90;;;;;;4892857;29;21067;-72
2023/02/05 10:48:43;;;;;;;7.50;2.20;;;8.30;99.90;;;;;;4917096;29;20788;-74
2023/02/05 10:51:16;;;;;;;5.90;2.00;;;8.30;99.90;;;;;;4901824;29;20515;-76
2023/02/05 10:53:42;;;;;;;4.83;1.80;;;8.30;99.90;;;;;;4898826;29;20419;-74
2023/02/05 10:56:15;;;;;;;4.33;1.77;;;8.30;99.90;;;;;;4922062;29;20549;-74
2023/02/05 10:59:01;;;;;;;9.10;2.53;;;8.30;99.90;;;;;;4918708;29;20437;-73
2023/02/05 11:01:36;;;;;;;5.03;2.20;;;8.30;99.90;;;;;;4914201;29;20797;-74
2023/02/05 11:04:02;;;;;;;5.37;2.20;;;8.30;99.90;;;;;;4937014;29;20442;-73
2023/02/05 11:06:38;;;;;;;8.77;2.67;;;8.30;99.90;;;;;;4911392;29;20464;-74
2023/02/05 11:09:24;;;;;;;9.50;2.20;;;8.30;99.90;;;;;;4916651;29;20447;-74
2023/02/05 11:12:01;;;;;;;6.00;1.70;;;8.40;99.90;;;;;;4900209;29;20993;-74
2023/02/05 11:14:39;;;;;;;5.77;2.40;;;8.40;99.90;;;;;;4900970;29;20451;-74
2023/02/05 11:17:23;;;;;;;6.87;2.30;;;8.30;99.90;;;;;;4898176;29;20453;-74
2023/02/05 11:19:55;;;;;;;7.43;1.97;;;8.30;99.90;;;;;;4905930;29;20497;-73
2023/02/05 11:22:26;;;;;;;5.33;1.90;;;8.30;99.90;;;;;;4898367;29;20554;-74
2023/02/05 11:25:17;;;;;;;6.33;1.87;;;8.30;99.90;;;;;;4920607;29;20488;-76
2023/02/05 11:27:57;;;;;;;9.87;2.27;;;8.40;99.90;;;;;;4901686;29;20474;-77
2023/02/05 11:30:34;;;;;;;8.07;2.20;;;8.30;99.90;;;;;;4917143;29;20470;-76
2023/02/05 11:33:24;;;;;;;7.50;2.80;;;8.30;99.90;;;;;;4917272;29;20424;-77
2023/02/05 11:36:06;;;;;;;8.27;2.50;;;8.40;99.90;;;;;;4916837;29;20463;-76
2023/02/05 11:38:45;;;;;;;6.20;2.10;;;8.40;99.90;;;;;;4901567;29;20464;-76
2023/02/05 11:41:27;;;;;;;9.30;2.53;;;8.30;99.90;;;;;;4910834;29;20543;-77
2023/02/05 11:43:58;;;;;;;6.20;1.70;;;8.40;99.90;;;;;;4901405;29;20444;-75
2023/02/05 11:46:35;;;;;;;7.03;2.37;;;8.30;99.90;;;;;;4917009;29;20460;-75
2023/02/05 11:49:04;;;;;;;10.90;2.67;;;8.30;99.90;;;;;;4885777;29;20506;-76
2023/02/05 11:51:43;;;;;;;8.10;2.50;;;8.30;99.90;;;;;;4916691;29;20429;-78
2023/02/05 11:54:30;;;;;;;12.73;3.10;;;8.30;99.90;;;;;;4917328;29;20448;-77
2023/02/05 11:57:18;;;;;;;6.53;2.37;;;8.40;99.90;;;;;;4917001;29;21000;-78
2023/02/05 12:00:11;;;;;;;8.60;2.50;;;8.40;99.90;;;;;;4908269;29;20760;-79
2023/02/05 12:02:42;;;;;;;9.23;1.90;;;8.40;99.90;;;;;;4894188;29;20476;-75
2023/02/05 12:05:18;;;;;;;10.77;2.40;;;8.30;99.90;;;;;;4897898;29;20850;-75
2023/02/05 12:07:50;;;;;;;7.33;2.40;;;8.40;99.90;;;;;;4904408;29;20471;-74
2023/02/05 12:10:25;;;;;;;8.07;2.90;;;8.30;99.90;;;;;;4901512;29;20816;-72
2023/02/05 12:13:17;;;;;;;8.73;2.20;;;8.30;99.90;;;;;;4917139;29;20482;-74
2023/02/05 12:15:49;;;;;;;8.93;2.47;;;8.40;99.90;;;;;;4913170;29;21008;-72
2023/02/05 12:18:38;;;;;;;6.80;3.37;;;8.40;99.90;;;;;;4900647;29;20447;-74
2023/02/05 12:21:16;;;;;;;6.50;2.30;;;8.30;99.90;;;;;;4891693;29;20524;-74
2023/02/05 12:24:07;;;;;;;8.30;3.13;;;8.30;99.90;;;;;;4927101;29;20482;-73
2023/02/05 12:26:39;;;;;;;10.17;2.40;;;8.30;99.90;;;;;;4915547;29;20444;-73
2023/02/05 12:29:37;;;;;;;8.10;2.30;;;8.30;99.90;;;;;;4899838;29;21186;-73
2023/02/05 12:32:25;;;;;;;9.80;2.60;;;8.30;99.90;;;;;;4897308;29;20420;-73
2023/02/05 12:34:56;;;;;;;7.43;2.70;;;8.30;99.90;;;;;;4893528;29;20447;-73
2023/02/05 12:37:39;;;;;;;6.27;2.40;;;8.30;99.90;;;;;;4905023;29;20444;-72
2023/02/05 12:40:26;;;;;;;12.70;2.50;;;8.30;99.90;;;;;;4911033;29;20431;-72
2023/02/05 12:43:15;;;;;;;6.27;2.67;;;8.30;99.90;;;;;;4917152;29;20460;-72
2023/02/05 12:45:56;;;;;;;6.30;1.97;;;8.30;99.90;;;;;;4901289;29;20471;-72
2023/02/05 12:48:38;;;;;;;6.23;2.40;;;8.30;99.90;;;;;;4902293;29;20438;-71
2023/02/05 12:51:20;;;;;;;10.83;3.07;;;8.30;99.90;;;;;;4879969;29;20960;-72
2023/02/05 12:54:05;;;;;;;6.00;2.10;;;8.30;99.90;;;;;;4895461;29;20452;-72
2023/02/05 12:56:52;;;;;;;7.10;2.10;;;8.30;99.90;;;;;;4896045;29;20455;-72
2023/02/05 12:59:24;;;;;;;3.77;1.90;;;8.30;99.90;;;;;;4900145;29;20510;-72
2023/02/05 13:02:05;;;;;;;4.53;1.80;;;8.30;99.90;;;;;;4913741;29;20457;-72
2023/02/05 13:04:41;;;;;;;4.23;1.70;;;8.30;99.90;;;;;;4914537;29;20452;-72
2023/02/05 13:07:44;;;;;;;3.73;2.00;;;8.30;99.90;;;;;;4918605;29;20521;-72
2023/02/05 13:10:20;;;;;;;4.03;1.60;;;8.30;99.90;;;;;;4907145;29;20468;-72
2023/02/05 13:13:08;;;;;;;7.90;1.90;;;8.30;99.90;;;;;;4912379;29;20428;-72
2023/02/05 13:15:51;;;;;;;5.57;1.90;;;8.30;99.90;;;;;;4896213;29;20463;-72
2023/02/05 13:18:24;;;;;;;3.23;1.50;;;8.30;99.90;;;;;;4900468;29;20428;-72
2023/02/05 13:29:43;;;;;;;7.50;1.60;;;8.30;99.90;;;;;;4915502;29;20994;-72